sensor_id;sensor_type;location;lat;lon;timestamp;P1;durP1;ratioP1;P2;durP2;ratioP2
705;SDS011;21234;48.690;9.016;2023-07-31T00:01:03;2.03;;;1.30;;
705;SDS011;21234;48.690;9.016;2023-07-31T00:03:31;3.43;;;1.77;;
705;SDS011;21234;48.690;9.016;2023-07-31T00:05:58;5.07;;;2.50;;
705;SDS011;21234;48.690;9.016;2023-07-31T00:08:24;3.00;;;1.47;;
705;SDS011;21234;48.690;9.016;2023-07-31T00:10:51;3.00;;;1.70;;
705;SDS011;21234;48.690;9.016;2023-07-31T00:13:18;2.87;;;1.90;;
705;SDS011;21234;48.690;9.016;2023-07-31T00:15:45;2.10;;;1.57;;
705;SDS011;21234;48.690;9.016;2023-07-31T00:18:12;4.03;;;2.10;;
705;SDS011;21234;48.690;9.016;2023-07-31T00:20:40;3.43;;;2.13;;
705;SDS011;21234;48.690;9.016;2023-07-31T00:23:07;4.03;;;2.17;;
705;SDS011;21234;48.690;9.016;2023-07-31T00:25:33;1.50;;;1.20;;
705;SDS011;21234;48.690;9.016;2023-07-31T00:28:00;5.23;;;1.93;;
705;SDS011;21234;48.690;9.016;2023-07-31T00:30:27;2.40;;;1.63;;
705;SDS011;21234;48.690;9.016;2023-07-31T00:32:53;1.87;;;1.57;;
705;SDS011;21234;48.690;9.016;2023-07-31T00:35:20;2.07;;;1.60;;
705;SDS011;21234;48.690;9.016;2023-07-31T00:37:48;2.37;;;1.70;;
705;SDS011;21234;48.690;9.016;2023-07-31T00:40:15;2.60;;;2.07;;
705;SDS011;21234;48.690;9.016;2023-07-31T00:42:41;1.60;;;1.50;;
705;SDS011;21234;48.690;9.016;2023-07-31T00:45:08;1.90;;;1.40;;
705;SDS011;21234;48.690;9.016;2023-07-31T00:47:35;2.93;;;1.70;;
705;SDS011;21234;48.690;9.016;2023-07-31T00:50:02;3.73;;;1.50;;
705;SDS011;21234;48.690;9.016;2023-07-31T00:52:29;1.80;;;1.60;;
705;SDS011;21234;48.690;9.016;2023-07-31T00:54:57;2.10;;;1.47;;
705;SDS011;21234;48.690;9.016;2023-07-31T00:57:24;2.13;;;1.43;;
705;SDS011;21234;48.690;9.016;2023-07-31T00:59:51;2.73;;;1.80;;
705;SDS011;21234;48.690;9.016;2023-07-31T01:02:18;2.60;;;1.67;;
705;SDS011;21234;48.690;9.016;2023-07-31T01:04:44;3.27;;;1.70;;
705;SDS011;21234;48.690;9.016;2023-07-31T01:07:13;2.50;;;1.40;;
705;SDS011;21234;48.690;9.016;2023-07-31T01:09:47;2.17;;;1.60;;
705;SDS011;21234;48.690;9.016;2023-07-31T01:12:30;2.13;;;1.93;;
705;SDS011;21234;48.690;9.016;2023-07-31T01:15:04;1.83;;;1.57;;
705;SDS011;21234;48.690;9.016;2023-07-31T01:17:31;2.73;;;1.80;;
705;SDS011;21234;48.690;9.016;2023-07-31T01:19:59;2.00;;;1.60;;
705;SDS011;21234;48.690;9.016;2023-07-31T01:25:33;2.77;;;1.80;;
705;SDS011;21234;48.690;9.016;2023-07-31T01:28:27;1.87;;;1.67;;
705;SDS011;21234;48.690;9.016;2023-07-31T01:30:59;2.63;;;1.90;;
705;SDS011;21234;48.690;9.016;2023-07-31T01:33:28;2.27;;;1.50;;
705;SDS011;21234;48.690;9.016;2023-07-31T01:35:56;2.20;;;2.00;;
705;SDS011;21234;48.690;9.016;2023-07-31T01:38:23;2.53;;;1.57;;
705;SDS011;21234;48.690;9.016;2023-07-31T01:40:50;2.20;;;1.57;;
705;SDS011;21234;48.690;9.016;2023-07-31T01:43:18;3.33;;;2.17;;
705;SDS011;21234;48.690;9.016;2023-07-31T01:45:46;2.57;;;1.90;;
705;SDS011;21234;48.690;9.016;2023-07-31T01:48:13;2.10;;;2.00;;
705;SDS011;21234;48.690;9.016;2023-07-31T01:50:39;2.57;;;1.70;;
705;SDS011;21234;48.690;9.016;2023-07-31T01:53:06;2.00;;;1.53;;
705;SDS011;21234;48.690;9.016;2023-07-31T01:55:33;2.47;;;1.70;;
705;SDS011;21234;48.690;9.016;2023-07-31T01:57:59;1.63;;;1.53;;
705;SDS011;21234;48.690;9.016;2023-07-31T02:00:26;2.50;;;1.70;;
705;SDS011;21234;48.690;9.016;2023-07-31T02:02:54;2.13;;;1.93;;
705;SDS011;21234;48.690;9.016;2023-07-31T02:05:20;3.60;;;1.70;;
705;SDS011;21234;48.690;9.016;2023-07-31T02:07:47;2.27;;;1.60;;
705;SDS011;21234;48.690;9.016;2023-07-31T02:10:14;2.77;;;2.23;;
705;SDS011;21234;48.690;9.016;2023-07-31T02:12:42;1.90;;;1.60;;
705;SDS011;21234;48.690;9.016;2023-07-31T02:15:09;2.17;;;1.60;;
705;SDS011;21234;48.690;9.016;2023-07-31T02:17:36;4.60;;;2.00;;
705;SDS011;21234;48.690;9.016;2023-07-31T02:20:04;3.13;;;1.90;;
705;SDS011;21234;48.690;9.016;2023-07-31T02:22:32;2.73;;;1.63;;
705;SDS011;21234;48.690;9.016;2023-07-31T02:24:58;2.10;;;1.67;;
705;SDS011;21234;48.690;9.016;2023-07-31T02:27:25;2.33;;;1.90;;
705;SDS011;21234;48.690;9.016;2023-07-31T02:29:52;2.13;;;1.70;;
705;SDS011;21234;48.690;9.016;2023-07-31T02:32:19;4.10;;;1.93;;
705;SDS011;21234;48.690;9.016;2023-07-31T02:34:46;3.40;;;2.00;;
705;SDS011;21234;48.690;9.016;2023-07-31T02:37:14;1.30;;;1.17;;
705;SDS011;21234;48.690;9.016;2023-07-31T02:39:40;3.73;;;1.40;;
705;SDS011;21234;48.690;9.016;2023-07-31T02:42:07;3.30;;;1.93;;
705;SDS011;21234;48.690;9.016;2023-07-31T02:44:34;3.30;;;1.77;;
705;SDS011;21234;48.690;9.016;2023-07-31T02:47:00;2.03;;;1.50;;
705;SDS011;21234;48.690;9.016;2023-07-31T02:49:28;2.43;;;2.10;;
705;SDS011;21234;48.690;9.016;2023-07-31T02:51:55;1.60;;;1.40;;
705;SDS011;21234;48.690;9.016;2023-07-31T02:54:23;2.77;;;1.60;;
705;SDS011;21234;48.690;9.016;2023-07-31T02:56:49;1.40;;;1.23;;
705;SDS011;21234;48.690;9.016;2023-07-31T02:59:16;2.73;;;1.70;;
705;SDS011;21234;48.690;9.016;2023-07-31T03:01:43;2.47;;;1.47;;
705;SDS011;21234;48.690;9.016;2023-07-31T03:04:10;4.20;;;1.83;;
705;SDS011;21234;48.690;9.016;2023-07-31T03:06:36;5.03;;;1.70;;
705;SDS011;21234;48.690;9.016;2023-07-31T03:09:03;2.10;;;1.60;;
705;SDS011;21234;48.690;9.016;2023-07-31T03:11:31;2.97;;;1.70;;
705;SDS011;21234;48.690;9.016;2023-07-31T03:13:58;2.40;;;1.73;;
705;SDS011;21234;48.690;9.016;2023-07-31T03:16:25;4.57;;;1.93;;
705;SDS011;21234;48.690;9.016;2023-07-31T03:18:51;2.43;;;1.43;;
705;SDS011;21234;48.690;9.016;2023-07-31T03:21:18;2.40;;;1.60;;
705;SDS011;21234;48.690;9.016;2023-07-31T03:23:44;2.40;;;1.80;;
705;SDS011;21234;48.690;9.016;2023-07-31T03:26:11;2.20;;;1.43;;
705;SDS011;21234;48.690;9.016;2023-07-31T03:28:40;2.70;;;2.33;;
705;SDS011;21234;48.690;9.016;2023-07-31T03:31:06;2.20;;;1.70;;
705;SDS011;21234;48.690;9.016;2023-07-31T03:33:34;2.63;;;1.60;;
705;SDS011;21234;48.690;9.016;2023-07-31T03:36:00;2.03;;;1.47;;
705;SDS011;21234;48.690;9.016;2023-07-31T03:38:27;3.57;;;1.60;;
705;SDS011;21234;48.690;9.016;2023-07-31T03:40:54;3.43;;;2.07;;
705;SDS011;21234;48.690;9.016;2023-07-31T03:43:20;2.00;;;1.60;;
705;SDS011;21234;48.690;9.016;2023-07-31T03:45:49;2.77;;;2.20;;
705;SDS011;21234;48.690;9.016;2023-07-31T03:48:16;3.00;;;1.73;;
705;SDS011;21234;48.690;9.016;2023-07-31T03:50:43;2.43;;;1.57;;
705;SDS011;21234;48.690;9.016;2023-07-31T03:53:10;1.60;;;1.50;;
705;SDS011;21234;48.690;9.016;2023-07-31T03:55:37;1.50;;;1.23;;
705;SDS011;21234;48.690;9.016;2023-07-31T03:58:03;2.57;;;1.90;;
705;SDS011;21234;48.690;9.016;2023-07-31T04:00:30;2.27;;;1.50;;
705;SDS011;21234;48.690;9.016;2023-07-31T04:02:58;3.07;;;1.90;;
705;SDS011;21234;48.690;9.016;2023-07-31T04:05:25;1.63;;;1.40;;
705;SDS011;21234;48.690;9.016;2023-07-31T04:07:52;2.53;;;1.47;;
705;SDS011;21234;48.690;9.016;2023-07-31T04:10:19;2.30;;;1.57;;
705;SDS011;21234;48.690;9.016;2023-07-31T04:12:45;2.40;;;2.03;;
705;SDS011;21234;48.690;9.016;2023-07-31T04:15:12;5.27;;;1.87;;
705;SDS011;21234;48.690;9.016;2023-07-31T04:17:39;1.90;;;1.80;;
705;SDS011;21234;48.690;9.016;2023-07-31T04:20:07;1.73;;;1.63;;
705;SDS011;21234;48.690;9.016;2023-07-31T04:22:35;6.27;;;2.17;;
705;SDS011;21234;48.690;9.016;2023-07-31T04:25:01;5.00;;;2.00;;
705;SDS011;21234;48.690;9.016;2023-07-31T04:27:28;1.27;;;1.17;;
705;SDS011;21234;48.690;9.016;2023-07-31T04:29:55;3.13;;;1.83;;
705;SDS011;21234;48.690;9.016;2023-07-31T04:32:22;7.77;;;2.07;;
705;SDS011;21234;48.690;9.016;2023-07-31T04:34:48;2.03;;;1.57;;
705;SDS011;21234;48.690;9.016;2023-07-31T04:37:16;1.83;;;1.37;;
705;SDS011;21234;48.690;9.016;2023-07-31T04:39:43;2.87;;;2.30;;
705;SDS011;21234;48.690;9.016;2023-07-31T04:42:10;2.93;;;2.17;;
705;SDS011;21234;48.690;9.016;2023-07-31T04:44:37;2.83;;;1.77;;
705;SDS011;21234;48.690;9.016;2023-07-31T04:47:03;2.00;;;1.43;;
705;SDS011;21234;48.690;9.016;2023-07-31T04:49:31;1.73;;;1.63;;
705;SDS011;21234;48.690;9.016;2023-07-31T04:51:58;3.47;;;1.60;;
705;SDS011;21234;48.690;9.016;2023-07-31T04:54:29;2.17;;;1.70;;
705;SDS011;21234;48.690;9.016;2023-07-31T04:56:58;1.87;;;1.53;;
705;SDS011;21234;48.690;9.016;2023-07-31T04:59:24;3.53;;;1.60;;
705;SDS011;21234;48.690;9.016;2023-07-31T05:01:51;2.63;;;2.07;;
705;SDS011;21234;48.690;9.016;2023-07-31T05:04:17;3.77;;;1.57;;
705;SDS011;21234;48.690;9.016;2023-07-31T05:06:44;2.57;;;2.07;;
705;SDS011;21234;48.690;9.016;2023-07-31T05:09:11;1.70;;;1.40;;
705;SDS011;21234;48.690;9.016;2023-07-31T05:11:39;2.90;;;2.00;;
705;SDS011;21234;48.690;9.016;2023-07-31T05:14:08;5.50;;;2.20;;
705;SDS011;21234;48.690;9.016;2023-07-31T05:16:34;2.83;;;2.63;;
705;SDS011;21234;48.690;9.016;2023-07-31T05:19:01;3.70;;;2.00;;
705;SDS011;21234;48.690;9.016;2023-07-31T05:21:28;2.40;;;1.60;;
705;SDS011;21234;48.690;9.016;2023-07-31T05:23:54;3.30;;;1.70;;
705;SDS011;21234;48.690;9.016;2023-07-31T05:26:21;1.97;;;1.70;;
705;SDS011;21234;48.690;9.016;2023-07-31T05:28:49;2.50;;;1.83;;
705;SDS011;21234;48.690;9.016;2023-07-31T05:31:16;3.60;;;2.00;;
705;SDS011;21234;48.690;9.016;2023-07-31T05:33:42;3.03;;;1.83;;
705;SDS011;21234;48.690;9.016;2023-07-31T05:36:09;2.33;;;2.13;;
705;SDS011;21234;48.690;9.016;2023-07-31T05:38:36;2.80;;;1.60;;
705;SDS011;21234;48.690;9.016;2023-07-31T05:41:03;2.90;;;1.40;;
705;SDS011;21234;48.690;9.016;2023-07-31T05:43:29;2.73;;;1.57;;
705;SDS011;21234;48.690;9.016;2023-07-31T05:45:57;2.93;;;2.20;;
705;SDS011;21234;48.690;9.016;2023-07-31T05:48:24;2.50;;;2.10;;
705;SDS011;21234;48.690;9.016;2023-07-31T05:50:51;3.03;;;1.60;;
705;SDS011;21234;48.690;9.016;2023-07-31T05:53:17;3.67;;;1.93;;
705;SDS011;21234;48.690;9.016;2023-07-31T05:55:44;2.47;;;1.90;;
705;SDS011;21234;48.690;9.016;2023-07-31T05:58:11;2.43;;;1.63;;
705;SDS011;21234;48.690;9.016;2023-07-31T06:00:37;2.93;;;1.67;;
705;SDS011;21234;48.690;9.016;2023-07-31T06:03:05;2.57;;;1.30;;
705;SDS011;21234;48.690;9.016;2023-07-31T06:05:32;1.70;;;1.37;;
705;SDS011;21234;48.690;9.016;2023-07-31T06:07:59;2.33;;;1.70;;
705;SDS011;21234;48.690;9.016;2023-07-31T06:10:26;1.97;;;1.73;;
705;SDS011;21234;48.690;9.016;2023-07-31T06:12:53;3.60;;;2.23;;
705;SDS011;21234;48.690;9.016;2023-07-31T06:15:20;2.50;;;1.73;;
705;SDS011;21234;48.690;9.016;2023-07-31T06:17:46;1.70;;;1.60;;
705;SDS011;21234;48.690;9.016;2023-07-31T06:20:15;6.30;;;2.53;;
705;SDS011;21234;48.690;9.016;2023-07-31T06:22:41;2.70;;;2.10;;
705;SDS011;21234;48.690;9.016;2023-07-31T06:25:08;2.40;;;1.87;;
705;SDS011;21234;48.690;9.016;2023-07-31T06:27:35;2.17;;;1.87;;
705;SDS011;21234;48.690;9.016;2023-07-31T06:30:01;4.00;;;1.47;;
705;SDS011;21234;48.690;9.016;2023-07-31T06:32:28;5.43;;;1.77;;
705;SDS011;21234;48.690;9.016;2023-07-31T06:34:55;1.90;;;1.50;;
705;SDS011;21234;48.690;9.016;2023-07-31T06:37:23;3.13;;;1.50;;
705;SDS011;21234;48.690;9.016;2023-07-31T06:39:49;5.70;;;2.30;;
705;SDS011;21234;48.690;9.016;2023-07-31T06:42:16;3.73;;;2.10;;
705;SDS011;21234;48.690;9.016;2023-07-31T06:44:43;10.23;;;2.53;;
705;SDS011;21234;48.690;9.016;2023-07-31T06:47:09;1.90;;;1.37;;
705;SDS011;21234;48.690;9.016;2023-07-31T06:49:36;2.70;;;1.80;;
705;SDS011;21234;48.690;9.016;2023-07-31T06:52:03;2.63;;;1.77;;
705;SDS011;21234;48.690;9.016;2023-07-31T06:54:32;3.00;;;1.83;;
705;SDS011;21234;48.690;9.016;2023-07-31T06:56:58;5.57;;;1.50;;
705;SDS011;21234;48.690;9.016;2023-07-31T06:59:25;2.10;;;1.77;;
705;SDS011;21234;48.690;9.016;2023-07-31T07:01:51;7.53;;;2.30;;
705;SDS011;21234;48.690;9.016;2023-07-31T07:04:18;4.43;;;2.93;;
705;SDS011;21234;48.690;9.016;2023-07-31T07:06:45;3.87;;;2.17;;
705;SDS011;21234;48.690;9.016;2023-07-31T07:09:11;1.60;;;1.50;;
705;SDS011;21234;48.690;9.016;2023-07-31T07:11:40;2.83;;;1.63;;
705;SDS011;21234;48.690;9.016;2023-07-31T07:14:06;4.10;;;1.60;;
705;SDS011;21234;48.690;9.016;2023-07-31T07:16:33;2.90;;;1.93;;
705;SDS011;21234;48.690;9.016;2023-07-31T07:18:59;2.17;;;1.87;;
705;SDS011;21234;48.690;9.016;2023-07-31T07:21:26;3.80;;;1.97;;
705;SDS011;21234;48.690;9.016;2023-07-31T07:23:53;4.20;;;2.20;;
705;SDS011;21234;48.690;9.016;2023-07-31T07:26:20;2.20;;;1.93;;
705;SDS011;21234;48.690;9.016;2023-07-31T07:28:48;3.00;;;2.00;;
705;SDS011;21234;48.690;9.016;2023-07-31T07:31:14;3.90;;;2.00;;
705;SDS011;21234;48.690;9.016;2023-07-31T07:33:41;4.23;;;2.27;;
705;SDS011;21234;48.690;9.016;2023-07-31T07:36:08;2.70;;;1.70;;
705;SDS011;21234;48.690;9.016;2023-07-31T07:38:35;3.50;;;1.70;;
705;SDS011;21234;48.690;9.016;2023-07-31T07:41:02;3.83;;;1.93;;
705;SDS011;21234;48.690;9.016;2023-07-31T07:43:28;2.20;;;1.60;;
705;SDS011;21234;48.690;9.016;2023-07-31T07:45:57;4.50;;;2.47;;
705;SDS011;21234;48.690;9.016;2023-07-31T07:48:23;3.27;;;2.03;;
705;SDS011;21234;48.690;9.016;2023-07-31T07:50:50;3.93;;;2.40;;
705;SDS011;21234;48.690;9.016;2023-07-31T07:53:17;2.77;;;1.90;;
705;SDS011;21234;48.690;9.016;2023-07-31T07:55:44;2.40;;;2.13;;
705;SDS011;21234;48.690;9.016;2023-07-31T07:58:10;3.63;;;2.40;;
705;SDS011;21234;48.690;9.016;2023-07-31T08:00:37;2.73;;;2.00;;
705;SDS011;21234;48.690;9.016;2023-07-31T08:03:05;4.40;;;1.47;;
705;SDS011;21234;48.690;9.016;2023-07-31T08:05:32;3.20;;;2.33;;
705;SDS011;21234;48.690;9.016;2023-07-31T08:07:59;3.80;;;1.97;;
705;SDS011;21234;48.690;9.016;2023-07-31T08:10:26;1.80;;;1.70;;
705;SDS011;21234;48.690;9.016;2023-07-31T08:12:52;4.50;;;2.07;;
705;SDS011;21234;48.690;9.016;2023-07-31T08:15:19;2.30;;;1.50;;
705;SDS011;21234;48.690;9.016;2023-07-31T08:17:46;1.90;;;1.80;;
705;SDS011;21234;48.690;9.016;2023-07-31T08:20:14;2.23;;;2.00;;
705;SDS011;21234;48.690;9.016;2023-07-31T08:22:40;3.40;;;2.43;;
705;SDS011;21234;48.690;9.016;2023-07-31T08:25:07;3.87;;;1.90;;
705;SDS011;21234;48.690;9.016;2023-07-31T08:27:34;2.10;;;1.80;;
705;SDS011;21234;48.690;9.016;2023-07-31T08:30:01;3.17;;;2.10;;
705;SDS011;21234;48.690;9.016;2023-07-31T08:32:28;2.50;;;2.30;;
705;SDS011;21234;48.690;9.016;2023-07-31T08:34:54;2.10;;;1.90;;
705;SDS011;21234;48.690;9.016;2023-07-31T08:37:22;2.90;;;2.20;;
705;SDS011;21234;48.690;9.016;2023-07-31T08:39:49;4.00;;;2.67;;
705;SDS011;21234;48.690;9.016;2023-07-31T08:42:16;3.40;;;2.07;;
705;SDS011;21234;48.690;9.016;2023-07-31T08:44:43;5.47;;;2.50;;
705;SDS011;21234;48.690;9.016;2023-07-31T08:47:10;2.33;;;1.53;;
705;SDS011;21234;48.690;9.016;2023-07-31T08:49:37;2.67;;;2.30;;
705;SDS011;21234;48.690;9.016;2023-07-31T08:52:05;3.90;;;2.07;;
705;SDS011;21234;48.690;9.016;2023-07-31T08:54:34;2.83;;;2.53;;
705;SDS011;21234;48.690;9.016;2023-07-31T08:57:00;1.97;;;1.70;;
705;SDS011;21234;48.690;9.016;2023-07-31T08:59:28;3.33;;;2.00;;
705;SDS011;21234;48.690;9.016;2023-07-31T09:01:57;3.87;;;2.50;;
705;SDS011;21234;48.690;9.016;2023-07-31T09:04:29;2.30;;;1.83;;
705;SDS011;21234;48.690;9.016;2023-07-31T09:06:59;4.70;;;2.43;;
705;SDS011;21234;48.690;9.016;2023-07-31T09:09:28;4.03;;;2.40;;
705;SDS011;21234;48.690;9.016;2023-07-31T09:11:57;3.03;;;2.20;;
705;SDS011;21234;48.690;9.016;2023-07-31T09:14:24;2.70;;;2.07;;
705;SDS011;21234;48.690;9.016;2023-07-31T09:16:52;4.20;;;2.60;;
705;SDS011;21234;48.690;9.016;2023-07-31T09:19:26;2.30;;;2.00;;
705;SDS011;21234;48.690;9.016;2023-07-31T09:21:53;2.80;;;2.03;;
705;SDS011;21234;48.690;9.016;2023-07-31T09:24:26;6.37;;;2.70;;
705;SDS011;21234;48.690;9.016;2023-07-31T09:26:55;2.30;;;1.80;;
705;SDS011;21234;48.690;9.016;2023-07-31T09:29:24;2.70;;;2.13;;
705;SDS011;21234;48.690;9.016;2023-07-31T09:31:52;2.77;;;2.40;;
705;SDS011;21234;48.690;9.016;2023-07-31T09:34:20;2.83;;;2.10;;
705;SDS011;21234;48.690;9.016;2023-07-31T09:36:54;4.00;;;1.80;;
705;SDS011;21234;48.690;9.016;2023-07-31T09:39:21;4.50;;;1.87;;
705;SDS011;21234;48.690;9.016;2023-07-31T09:41:53;6.00;;;2.30;;
705;SDS011;21234;48.690;9.016;2023-07-31T09:44:22;4.43;;;2.17;;
705;SDS011;21234;48.690;9.016;2023-07-31T09:47:04;5.73;;;2.73;;
705;SDS011;21234;48.690;9.016;2023-07-31T09:49:31;3.57;;;2.67;;
705;SDS011;21234;48.690;9.016;2023-07-31T09:51:58;3.80;;;2.90;;
705;SDS011;21234;48.690;9.016;2023-07-31T09:54:25;3.00;;;1.80;;
705;SDS011;21234;48.690;9.016;2023-07-31T09:56:52;3.50;;;2.10;;
705;SDS011;21234;48.690;9.016;2023-07-31T09:59:20;4.20;;;2.87;;
705;SDS011;21234;48.690;9.016;2023-07-31T10:01:48;7.33;;;2.20;;
705;SDS011;21234;48.690;9.016;2023-07-31T10:04:16;3.50;;;2.10;;
705;SDS011;21234;48.690;9.016;2023-07-31T10:06:45;3.63;;;2.20;;
705;SDS011;21234;48.690;9.016;2023-07-31T10:09:15;4.40;;;2.40;;
705;SDS011;21234;48.690;9.016;2023-07-31T10:11:46;3.93;;;2.57;;
705;SDS011;21234;48.690;9.016;2023-07-31T10:14:16;3.83;;;2.30;;
705;SDS011;21234;48.690;9.016;2023-07-31T10:16:44;5.00;;;2.80;;
705;SDS011;21234;48.690;9.016;2023-07-31T10:19:13;5.10;;;2.10;;
705;SDS011;21234;48.690;9.016;2023-07-31T10:21:40;3.63;;;2.43;;
705;SDS011;21234;48.690;9.016;2023-07-31T10:24:08;2.80;;;2.00;;
705;SDS011;21234;48.690;9.016;2023-07-31T10:26:35;3.60;;;2.80;;
705;SDS011;21234;48.690;9.016;2023-07-31T10:29:05;2.43;;;2.07;;
705;SDS011;21234;48.690;9.016;2023-07-31T10:31:32;2.53;;;2.00;;
705;SDS011;21234;48.690;9.016;2023-07-31T10:34:01;5.87;;;2.20;;
705;SDS011;21234;48.690;9.016;2023-07-31T10:36:29;3.53;;;2.20;;
705;SDS011;21234;48.690;9.016;2023-07-31T10:38:56;5.80;;;2.83;;
705;SDS011;21234;48.690;9.016;2023-07-31T10:41:27;4.80;;;2.80;;
705;SDS011;21234;48.690;9.016;2023-07-31T10:43:57;3.50;;;2.40;;
705;SDS011;21234;48.690;9.016;2023-07-31T10:46:24;3.90;;;2.73;;
705;SDS011;21234;48.690;9.016;2023-07-31T10:48:57;6.53;;;3.37;;
705;SDS011;21234;48.690;9.016;2023-07-31T10:51:24;3.30;;;2.50;;
705;SDS011;21234;48.690;9.016;2023-07-31T10:54:10;3.47;;;2.60;;
705;SDS011;21234;48.690;9.016;2023-07-31T10:56:37;5.70;;;3.03;;
705;SDS011;21234;48.690;9.016;2023-07-31T10:59:04;4.00;;;2.40;;
705;SDS011;21234;48.690;9.016;2023-07-31T11:04:16;3.23;;;2.47;;
705;SDS011;21234;48.690;9.016;2023-07-31T11:06:56;6.03;;;2.30;;
705;SDS011;21234;48.690;9.016;2023-07-31T11:09:24;5.00;;;2.90;;
705;SDS011;21234;48.690;9.016;2023-07-31T11:11:54;3.27;;;2.50;;
705;SDS011;21234;48.690;9.016;2023-07-31T11:14:22;4.43;;;3.13;;
705;SDS011;21234;48.690;9.016;2023-07-31T11:16:49;5.33;;;2.90;;
705;SDS011;21234;48.690;9.016;2023-07-31T11:19:20;4.13;;;2.43;;
705;SDS011;21234;48.690;9.016;2023-07-31T11:21:47;3.63;;;2.33;;
705;SDS011;21234;48.690;9.016;2023-07-31T11:24:15;3.63;;;2.63;;
705;SDS011;21234;48.690;9.016;2023-07-31T11:26:47;5.03;;;2.67;;
705;SDS011;21234;48.690;9.016;2023-07-31T11:29:15;3.03;;;2.60;;
705;SDS011;21234;48.690;9.016;2023-07-31T11:31:42;3.73;;;2.13;;
705;SDS011;21234;48.690;9.016;2023-07-31T11:34:09;3.93;;;2.30;;
705;SDS011;21234;48.690;9.016;2023-07-31T11:36:35;2.70;;;2.37;;
705;SDS011;21234;48.690;9.016;2023-07-31T11:39:06;2.63;;;2.30;;
705;SDS011;21234;48.690;9.016;2023-07-31T11:41:35;4.50;;;2.50;;
705;SDS011;21234;48.690;9.016;2023-07-31T11:44:02;5.80;;;2.40;;
705;SDS011;21234;48.690;9.016;2023-07-31T11:46:29;7.50;;;3.47;;
705;SDS011;21234;48.690;9.016;2023-07-31T11:48:58;3.30;;;2.60;;
705;SDS011;21234;48.690;9.016;2023-07-31T11:51:26;3.80;;;2.60;;
705;SDS011;21234;48.690;9.016;2023-07-31T11:53:56;4.23;;;3.23;;
705;SDS011;21234;48.690;9.016;2023-07-31T11:56:26;3.07;;;2.80;;
705;SDS011;21234;48.690;9.016;2023-07-31T11:58:57;3.40;;;2.53;;
705;SDS011;21234;48.690;9.016;2023-07-31T12:01:27;2.87;;;2.37;;
705;SDS011;21234;48.690;9.016;2023-07-31T12:03:54;4.20;;;2.80;;
705;SDS011;21234;48.690;9.016;2023-07-31T12:06:22;2.70;;;2.30;;
705;SDS011;21234;48.690;9.016;2023-07-31T12:09:00;5.00;;;2.57;;
705;SDS011;21234;48.690;9.016;2023-07-31T12:11:28;4.03;;;2.47;;
705;SDS011;21234;48.690;9.016;2023-07-31T12:13:56;3.10;;;2.50;;
705;SDS011;21234;48.690;9.016;2023-07-31T12:16:25;7.07;;;2.47;;
705;SDS011;21234;48.690;9.016;2023-07-31T12:18:52;4.00;;;2.40;;
705;SDS011;21234;48.690;9.016;2023-07-31T12:21:19;5.10;;;2.57;;
705;SDS011;21234;48.690;9.016;2023-07-31T12:23:46;5.03;;;3.03;;
705;SDS011;21234;48.690;9.016;2023-07-31T12:26:13;5.00;;;3.10;;
705;SDS011;21234;48.690;9.016;2023-07-31T12:28:41;4.00;;;2.90;;
705;SDS011;21234;48.690;9.016;2023-07-31T12:31:11;6.63;;;3.27;;
705;SDS011;21234;48.690;9.016;2023-07-31T12:33:39;6.00;;;3.60;;
705;SDS011;21234;48.690;9.016;2023-07-31T12:36:07;4.47;;;2.30;;
705;SDS011;21234;48.690;9.016;2023-07-31T12:38:35;4.77;;;3.20;;
705;SDS011;21234;48.690;9.016;2023-07-31T12:41:02;2.10;;;1.90;;
705;SDS011;21234;48.690;9.016;2023-07-31T12:43:29;5.57;;;2.67;;
705;SDS011;21234;48.690;9.016;2023-07-31T12:45:55;2.40;;;2.13;;
705;SDS011;21234;48.690;9.016;2023-07-31T12:48:24;4.93;;;2.50;;
705;SDS011;21234;48.690;9.016;2023-07-31T12:50:50;4.70;;;3.17;;
705;SDS011;21234;48.690;9.016;2023-07-31T12:53:17;4.33;;;2.87;;
705;SDS011;21234;48.690;9.016;2023-07-31T12:55:44;6.33;;;3.20;;
705;SDS011;21234;48.690;9.016;2023-07-31T12:58:11;3.07;;;2.77;;
705;SDS011;21234;48.690;9.016;2023-07-31T13:00:37;6.40;;;3.03;;
705;SDS011;21234;48.690;9.016;2023-07-31T13:03:04;4.97;;;3.10;;
705;SDS011;21234;48.690;9.016;2023-07-31T13:05:33;4.00;;;2.63;;
705;SDS011;21234;48.690;9.016;2023-07-31T13:07:59;3.70;;;2.43;;
705;SDS011;21234;48.690;9.016;2023-07-31T13:10:26;4.30;;;3.10;;
705;SDS011;21234;48.690;9.016;2023-07-31T13:12:54;4.97;;;3.17;;
705;SDS011;21234;48.690;9.016;2023-07-31T13:15:21;4.87;;;2.77;;
705;SDS011;21234;48.690;9.016;2023-07-31T13:17:47;3.70;;;2.87;;
705;SDS011;21234;48.690;9.016;2023-07-31T13:20:14;3.50;;;3.13;;
705;SDS011;21234;48.690;9.016;2023-07-31T13:22:42;4.73;;;3.40;;
705;SDS011;21234;48.690;9.016;2023-07-31T13:25:09;4.87;;;3.03;;
705;SDS011;21234;48.690;9.016;2023-07-31T13:27:35;4.13;;;2.70;;
705;SDS011;21234;48.690;9.016;2023-07-31T13:30:02;3.73;;;2.23;;
705;SDS011;21234;48.690;9.016;2023-07-31T13:32:29;4.30;;;2.53;;
705;SDS011;21234;48.690;9.016;2023-07-31T13:34:56;5.33;;;2.43;;
705;SDS011;21234;48.690;9.016;2023-07-31T13:37:24;5.93;;;2.77;;
705;SDS011;21234;48.690;9.016;2023-07-31T13:39:52;2.73;;;2.53;;
705;SDS011;21234;48.690;9.016;2023-07-31T13:42:18;4.63;;;2.70;;
705;SDS011;21234;48.690;9.016;2023-07-31T13:44:45;5.40;;;4.00;;
705;SDS011;21234;48.690;9.016;2023-07-31T13:47:12;3.93;;;2.43;;
705;SDS011;21234;48.690;9.016;2023-07-31T13:49:38;2.93;;;2.57;;
705;SDS011;21234;48.690;9.016;2023-07-31T13:52:06;4.43;;;2.67;;
705;SDS011;21234;48.690;9.016;2023-07-31T13:54:33;2.92;;;2.35;;
705;SDS011;21234;48.690;9.016;2023-07-31T13:57:02;5.30;;;2.93;;
705;SDS011;21234;48.690;9.016;2023-07-31T13:59:29;3.53;;;1.97;;
705;SDS011;21234;48.690;9.016;2023-07-31T14:01:56;3.67;;;2.67;;
705;SDS011;21234;48.690;9.016;2023-07-31T14:04:22;2.73;;;2.50;;
705;SDS011;21234;48.690;9.016;2023-07-31T14:06:49;3.97;;;3.00;;
705;SDS011;21234;48.690;9.016;2023-07-31T14:09:16;2.90;;;2.60;;
705;SDS011;21234;48.690;9.016;2023-07-31T14:11:43;4.50;;;2.73;;
705;SDS011;21234;48.690;9.016;2023-07-31T14:14:11;4.87;;;2.77;;
705;SDS011;21234;48.690;9.016;2023-07-31T14:16:39;3.10;;;2.80;;
705;SDS011;21234;48.690;9.016;2023-07-31T14:19:05;2.70;;;2.40;;
705;SDS011;21234;48.690;9.016;2023-07-31T14:21:33;3.00;;;2.80;;
705;SDS011;21234;48.690;9.016;2023-07-31T14:24:00;3.97;;;2.93;;
705;SDS011;21234;48.690;9.016;2023-07-31T14:26:26;2.80;;;2.50;;
705;SDS011;21234;48.690;9.016;2023-07-31T14:28:53;2.60;;;2.40;;
705;SDS011;21234;48.690;9.016;2023-07-31T14:31:21;2.73;;;2.53;;
705;SDS011;21234;48.690;9.016;2023-07-31T14:33:48;2.73;;;2.40;;
705;SDS011;21234;48.690;9.016;2023-07-31T14:36:15;3.73;;;3.00;;
705;SDS011;21234;48.690;9.016;2023-07-31T14:38:41;4.27;;;2.30;;
705;SDS011;21234;48.690;9.016;2023-07-31T14:41:08;5.30;;;3.00;;
705;SDS011;21234;48.690;9.016;2023-07-31T14:43:35;4.60;;;2.43;;
705;SDS011;21234;48.690;9.016;2023-07-31T14:46:01;4.40;;;2.67;;
705;SDS011;21234;48.690;9.016;2023-07-31T14:48:29;3.90;;;2.50;;
705;SDS011;21234;48.690;9.016;2023-07-31T14:50:56;3.07;;;2.67;;
705;SDS011;21234;48.690;9.016;2023-07-31T14:53:23;4.60;;;2.50;;
705;SDS011;21234;48.690;9.016;2023-07-31T14:55:50;3.30;;;2.50;;
705;SDS011;21234;48.690;9.016;2023-07-31T14:58:16;2.47;;;2.27;;
705;SDS011;21234;48.690;9.016;2023-07-31T15:00:43;2.53;;;2.20;;
705;SDS011;21234;48.690;9.016;2023-07-31T15:03:10;3.57;;;2.47;;
705;SDS011;21234;48.690;9.016;2023-07-31T15:05:38;2.93;;;2.63;;
705;SDS011;21234;48.690;9.016;2023-07-31T15:08:05;3.67;;;2.43;;
705;SDS011;21234;48.690;9.016;2023-07-31T15:10:31;4.77;;;3.10;;
705;SDS011;21234;48.690;9.016;2023-07-31T15:12:58;5.77;;;2.77;;
705;SDS011;21234;48.690;9.016;2023-07-31T15:15:26;4.00;;;2.80;;
705;SDS011;21234;48.690;9.016;2023-07-31T15:17:53;4.23;;;2.47;;
705;SDS011;21234;48.690;9.016;2023-07-31T15:20:20;3.00;;;2.17;;
705;SDS011;21234;48.690;9.016;2023-07-31T15:22:48;4.50;;;2.70;;